createdAt,value
2022-09-28T00:00:12.433Z,9.90
2022-09-28T00:05:14.945Z,9.80
2022-09-28T00:10:19.022Z,9.80
2022-09-28T00:15:22.909Z,9.70
2022-09-28T00:20:25.703Z,9.60
2022-09-28T00:25:29.647Z,9.50
2022-09-28T00:30:31.902Z,9.40
2022-09-28T00:35:34.123Z,9.40
2022-09-28T00:40:38.197Z,9.30
2022-09-28T00:45:41.080Z,9.30
2022-09-28T00:50:45.290Z,9.30
2022-09-28T00:55:54.384Z,9.20
2022-09-28T01:00:59.614Z,9.10
2022-09-28T01:06:05.388Z,9.10
2022-09-28T01:11:09.364Z,9.00
2022-09-28T01:16:19.810Z,9.00
2022-09-28T01:21:24.378Z,8.90
2022-09-28T01:26:42.172Z,8.90
2022-09-28T01:31:48.887Z,8.90
2022-09-28T01:36:55.606Z,8.90
2022-09-28T01:42:04.662Z,8.90
2022-09-28T01:47:10.825Z,8.90
2022-09-28T01:52:20.063Z,8.80
2022-09-28T01:57:29.777Z,8.80
2022-09-28T02:02:35.531Z,8.70
2022-09-28T02:07:42.346Z,8.60
2022-09-28T02:12:50.195Z,8.60
2022-09-28T02:17:53.384Z,8.70
2022-09-28T02:22:58.581Z,8.60
2022-09-28T02:28:05.355Z,8.60
2022-09-28T02:33:13.184Z,8.50
2022-09-28T02:38:15.823Z,8.50
2022-09-28T02:43:25.067Z,8.40
2022-09-28T02:48:43.938Z,8.40
2022-09-28T02:54:07.734Z,8.30
2022-09-28T02:59:20.879Z,8.30
2022-09-28T03:04:35.294Z,8.20
2022-09-28T03:09:47.109Z,8.20
2022-09-28T03:15:07.607Z,8.20
2022-09-28T03:20:11.653Z,8.20
2022-09-28T03:25:15.075Z,8.20
2022-09-28T03:30:18.970Z,8.10
2022-09-28T03:35:21.394Z,8.10
2022-09-28T03:40:24.205Z,8.00
2022-09-28T03:45:28.533Z,8.00
2022-09-28T03:50:31.286Z,7.90
2022-09-28T03:55:33.874Z,7.90
2022-09-28T04:00:38.574Z,7.80
2022-09-28T04:05:49.158Z,7.80
2022-09-28T04:10:51.945Z,7.70
2022-09-28T04:15:59.176Z,7.70
2022-09-28T04:21:04.506Z,7.60
2022-09-28T04:26:08.619Z,7.50
2022-09-28T04:31:16.946Z,7.40
2022-09-28T04:36:20.283Z,7.40
2022-09-28T04:41:22.869Z,7.50
2022-09-28T04:46:26.922Z,7.50
2022-09-28T04:51:31.621Z,7.50
2022-09-28T04:56:34.095Z,7.50
2022-09-28T05:01:38.426Z,7.40
2022-09-28T05:06:41.281Z,7.30
2022-09-28T05:11:44.138Z,7.30
2022-09-28T05:16:48.697Z,7.30
2022-09-28T05:21:51.666Z,7.20
2022-09-28T05:26:54.786Z,7.20
2022-09-28T05:32:00.435Z,7.10
2022-09-28T05:37:03.122Z,7.10
2022-09-28T05:42:06.071Z,7.10
2022-09-28T05:47:10.312Z,7.10
2022-09-28T05:52:12.717Z,7.10
2022-09-28T05:57:15.870Z,7.20
2022-09-28T06:02:20.233Z,7.30
2022-09-28T06:07:23.101Z,7.40
2022-09-28T06:12:25.843Z,7.50
2022-09-28T06:17:29.626Z,7.60
2022-09-28T06:22:32.263Z,7.70
2022-09-28T06:27:34.931Z,7.80
2022-09-28T06:32:39.000Z,7.80
2022-09-28T06:37:44.030Z,7.90
2022-09-28T06:42:56.132Z,8.00
2022-09-28T06:48:02.319Z,8.10
2022-09-28T06:53:05.985Z,8.20
2022-09-28T06:58:11.819Z,8.20
2022-09-28T07:03:17.563Z,8.30
2022-09-28T07:08:23.084Z,8.40
2022-09-28T07:13:49.194Z,8.50
2022-09-28T07:18:51.578Z,8.60
2022-09-28T07:23:54.523Z,8.60
2022-09-28T07:28:57.337Z,8.70
2022-09-28T07:34:01.522Z,8.90
2022-09-28T07:39:04.310Z,9.20
2022-09-28T07:44:07.780Z,9.50
2022-09-28T07:49:12.478Z,9.70
2022-09-28T07:54:15.136Z,9.90
2022-09-28T07:59:18.205Z,10.30
2022-09-28T08:04:22.695Z,10.70
2022-09-28T08:09:25.401Z,11.00
2022-09-28T08:14:28.323Z,11.30
2022-09-28T08:19:33.136Z,11.60
2022-09-28T08:24:35.663Z,12.00
2022-09-28T08:29:38.304Z,12.40
2022-09-28T08:34:42.307Z,12.90
2022-09-28T08:39:44.930Z,13.40
2022-09-28T08:44:50.720Z,14.20
2022-09-28T08:55:03.900Z,15.90
2022-09-28T09:00:11.544Z,16.50
2022-09-28T09:05:18.332Z,17.10
2022-09-28T09:10:38.953Z,17.40
2022-09-28T09:15:50.152Z,17.40
2022-09-28T09:20:57.283Z,17.20
2022-09-28T09:26:06.194Z,17.10
2022-09-28T09:31:21.920Z,17.00
2022-09-28T09:36:41.220Z,16.90
2022-09-28T09:41:57.643Z,16.90
2022-09-28T09:47:05.957Z,16.80
2022-09-28T09:52:16.412Z,16.80
2022-09-28T09:57:24.479Z,17.20
2022-09-28T10:02:29.233Z,17.70
2022-09-28T10:07:43.141Z,18.10
2022-09-28T10:12:46.254Z,18.70
2022-09-28T10:17:48.734Z,19.50
2022-09-28T10:22:56.537Z,20.00
2022-09-28T10:28:01.403Z,20.70
2022-09-28T10:33:04.211Z,21.60
2022-09-28T10:38:14.614Z,22.50
2022-09-28T10:43:22.068Z,23.10
2022-09-28T10:48:24.764Z,23.50
2022-09-28T10:53:28.840Z,23.70
2022-09-28T10:58:37.471Z,23.70
2022-09-28T11:03:51.087Z,23.30
2022-09-28T11:08:56.988Z,22.60
2022-09-28T11:14:02.388Z,21.90
2022-09-28T11:19:26.504Z,21.30
2022-09-28T11:24:30.972Z,21.10
2022-09-28T11:29:38.778Z,21.30
2022-09-28T11:34:59.224Z,21.70
2022-09-28T11:40:16.864Z,22.20
2022-09-28T11:45:34.342Z,22.70
2022-09-28T11:50:46.034Z,23.10
2022-09-28T11:55:56.460Z,23.30
2022-09-28T12:01:05.947Z,23.10
2022-09-28T12:06:14.480Z,22.90
2022-09-28T12:11:25.465Z,22.50
2022-09-28T12:22:03.100Z,21.50
2022-09-28T12:27:14.626Z,21.10
2022-09-28T12:32:29.411Z,20.80
2022-09-28T12:37:46.712Z,20.50
2022-09-28T12:43:09.550Z,20.30
2022-09-28T12:48:36.219Z,20.10
2022-09-28T12:54:11.236Z,19.90
2022-09-28T12:59:24.927Z,20.00
2022-09-28T13:05:00.676Z,20.40
2022-09-28T13:10:12.578Z,20.90
2022-09-28T13:15:40.185Z,21.00
2022-09-28T13:20:56.728Z,21.00
2022-09-28T13:26:07.370Z,20.90
2022-09-28T13:31:17.007Z,20.60
2022-09-28T13:36:38.445Z,20.20
2022-09-28T13:41:48.698Z,20.00
2022-09-28T13:47:19.973Z,19.90
2022-09-28T13:52:40.054Z,19.90
2022-09-28T13:57:48.928Z,20.10
2022-09-28T14:02:59.196Z,20.10
2022-09-28T14:08:30.468Z,20.00
2022-09-28T14:14:02.226Z,20.00
2022-09-28T14:19:12.351Z,19.90
2022-09-28T14:24:37.403Z,19.90
2022-09-28T14:29:40.512Z,19.80
2022-09-28T14:34:48.261Z,19.90
2022-09-28T14:39:51.746Z,19.90
2022-09-28T14:45:35.127Z,19.80
2022-09-28T14:50:39.599Z,19.60
2022-09-28T14:55:47.277Z,19.40
2022-09-28T15:00:56.098Z,19.20
2022-09-28T15:06:00.268Z,18.90
2022-09-28T15:11:02.706Z,18.70
2022-09-28T15:16:08.432Z,18.50
2022-09-28T15:21:13.477Z,18.30
2022-09-28T15:26:25.314Z,18.10
2022-09-28T15:31:30.886Z,18.00
2022-09-28T15:36:39.752Z,18.00
2022-09-28T15:41:43.608Z,17.90
2022-09-28T15:46:47.836Z,17.90
2022-09-28T15:51:54.866Z,17.90
2022-09-28T15:56:59.222Z,17.90
2022-09-28T16:02:20.630Z,17.90
2022-09-28T16:07:33.574Z,17.90
2022-09-28T16:12:45.144Z,17.80
2022-09-28T16:17:53.549Z,17.70
2022-09-28T16:23:00.114Z,17.60
2022-09-28T16:28:02.692Z,17.40
2022-09-28T16:33:06.473Z,17.30
2022-09-28T16:38:14.296Z,17.10
2022-09-28T16:43:21.513Z,16.90
2022-09-28T16:48:25.677Z,16.70
2022-09-28T16:53:29.579Z,16.50
2022-09-28T16:58:32.616Z,16.20
2022-09-28T17:03:35.761Z,15.90
2022-09-28T17:08:39.768Z,15.60
2022-09-28T17:13:42.612Z,15.50
2022-09-28T17:18:45.555Z,15.30
2022-09-28T17:23:50.399Z,15.30
2022-09-28T17:28:53.059Z,15.10
2022-09-28T17:33:55.695Z,15.00
2022-09-28T17:39:01.300Z,14.90
2022-09-28T17:44:03.985Z,14.80
2022-09-28T17:49:08.180Z,14.60
2022-09-28T17:54:12.309Z,14.40
2022-09-28T17:59:17.662Z,14.20
2022-09-28T18:04:47.138Z,14.00
2022-09-28T18:09:44.059Z,13.90
2022-09-28T18:14:46.452Z,13.80
2022-09-28T18:19:48.909Z,13.60
2022-09-28T18:24:53.183Z,13.50
2022-09-28T18:29:55.604Z,13.30
2022-09-28T18:34:59.665Z,13.20
2022-09-28T18:40:04.397Z,13.10
2022-09-28T18:45:09.451Z,13.00
2022-09-28T18:50:12.972Z,13.00
2022-09-28T18:55:17.029Z,12.90
2022-09-28T19:00:19.754Z,12.90
2022-09-28T19:05:22.529Z,12.70
2022-09-28T19:10:26.891Z,12.70
2022-09-28T19:15:29.541Z,12.60
2022-09-28T19:20:33.737Z,12.60
2022-09-28T19:25:37.832Z,12.40
2022-09-28T19:30:40.995Z,12.30
2022-09-28T19:35:43.634Z,12.20
2022-09-28T19:40:47.638Z,12.20
2022-09-28T19:45:51.210Z,12.10
2022-09-28T19:50:57.013Z,11.90
2022-09-28T19:56:01.720Z,11.70
2022-09-28T20:01:07.175Z,11.50
2022-09-28T20:06:11.828Z,11.30
2022-09-28T20:11:19.776Z,11.20
2022-09-28T20:16:22.196Z,11.20
2022-09-28T20:21:27.275Z,11.10
2022-09-28T20:26:31.352Z,11.10
2022-09-28T20:31:35.151Z,11.00
2022-09-28T20:36:38.177Z,11.00
2022-09-28T20:41:42.455Z,11.00
2022-09-28T20:46:45.073Z,10.90
2022-09-28T20:51:47.418Z,10.90
2022-09-28T20:56:51.251Z,10.90
2022-09-28T21:01:54.277Z,10.80
2022-09-28T21:06:57.056Z,10.70
2022-09-28T21:12:01.698Z,10.50
2022-09-28T21:17:04.440Z,10.50
2022-09-28T21:22:06.973Z,10.40
2022-09-28T21:27:10.745Z,10.30
2022-09-28T21:32:13.162Z,10.30
2022-09-28T21:37:16.643Z,10.20
2022-09-28T21:42:20.904Z,10.20
2022-09-28T21:47:23.375Z,10.10
2022-09-28T21:52:26.165Z,10.00
2022-09-28T21:57:30.115Z,9.90
2022-09-28T22:02:32.795Z,9.90
2022-09-28T22:07:35.749Z,9.90
2022-09-28T22:12:39.995Z,9.90
2022-09-28T22:17:42.719Z,9.80
2022-09-28T22:22:49.486Z,9.80
2022-09-28T22:27:54.250Z,9.80
2022-09-28T22:32:56.833Z,9.70
2022-09-28T22:38:00.426Z,9.60
2022-09-28T22:43:04.142Z,9.50
2022-09-28T22:48:06.493Z,9.50
2022-09-28T22:53:09.319Z,9.50
2022-09-28T22:58:13.539Z,9.50
2022-09-28T23:03:17.314Z,9.40
2022-09-28T23:08:19.683Z,9.30
2022-09-28T23:13:23.450Z,9.10
2022-09-28T23:18:27.467Z,9.10
2022-09-28T23:23:31.186Z,9.00
2022-09-28T23:28:34.856Z,9.00
2022-09-28T23:33:37.351Z,9.00
2022-09-28T23:38:40.069Z,9.00
2022-09-28T23:43:44.949Z,9.00
2022-09-28T23:48:47.286Z,9.00
2022-09-28T23:53:49.647Z,9.00
2022-09-28T23:58:53.378Z,9.00
